createdAt,value
2023-05-08T00:02:57.799Z,99597.85
2023-05-08T00:08:50.152Z,99601.54
2023-05-08T00:14:05.766Z,99599.77
2023-05-08T00:19:14.784Z,99601.39
2023-05-08T00:25:16.231Z,99601.02
2023-05-08T00:31:43.825Z,99596.86
2023-05-08T00:38:08.484Z,99601.20
2023-05-08T00:44:35.578Z,99596.39
2023-05-08T00:51:38.423Z,99586.56
2023-05-08T00:58:42.055Z,99591.27
2023-05-08T01:05:44.437Z,99600.56
2023-05-08T01:11:23.173Z,99607.27
2023-05-08T01:17:26.306Z,99607.30
2023-05-08T01:24:03.199Z,99605.30
2023-05-08T01:30:29.186Z,99607.04
2023-05-08T01:36:45.878Z,99610.81
2023-05-08T01:42:50.759Z,99613.89
2023-05-08T01:49:12.134Z,99614.91
2023-05-08T01:55:35.823Z,99618.34
2023-05-08T02:01:57.396Z,99610.19
2023-05-08T02:08:24.144Z,99607.80
2023-05-08T02:14:56.165Z,99611.89
2023-05-08T02:21:29.909Z,99616.81
2023-05-08T02:28:42.654Z,99615.63
2023-05-08T02:35:45.186Z,99623.32
2023-05-08T02:42:08.714Z,99616.15
2023-05-08T02:47:58.056Z,99625.88
2023-05-08T02:53:18.265Z,99628.23
2023-05-08T02:58:36.762Z,99627.92
2023-05-08T03:04:12.489Z,99630.29
2023-05-08T03:10:25.124Z,99627.88
2023-05-08T03:17:02.649Z,99627.90
2023-05-08T03:23:27.021Z,99635.75
2023-05-08T03:29:58.319Z,99639.17
2023-05-08T03:36:19.996Z,99643.48
2023-05-08T03:42:45.936Z,99641.77
2023-05-08T03:49:20.057Z,99639.16
2023-05-08T03:54:42.591Z,99642.36
2023-05-08T04:00:49.805Z,99653.05
2023-05-08T04:07:37.989Z,99652.98
2023-05-08T04:14:41.862Z,99662.84
2023-05-08T04:21:26.024Z,99670.46
2023-05-08T04:27:49.123Z,99673.59
2023-05-08T04:34:51.000Z,99678.24
2023-05-08T04:41:52.872Z,99686.83
2023-05-08T04:47:20.074Z,99689.19
2023-05-08T04:52:50.220Z,99687.77
2023-05-08T04:58:33.133Z,99689.38
2023-05-08T05:03:49.765Z,99692.30
2023-05-08T05:09:11.168Z,99701.02
2023-05-08T05:14:42.763Z,99709.05
2023-05-08T05:20:07.024Z,99712.96
2023-05-08T05:26:08.786Z,99719.42
2023-05-08T05:32:30.256Z,99724.42
2023-05-08T05:38:48.254Z,99726.80
2023-05-08T05:45:43.806Z,99730.45
2023-05-08T05:51:22.785Z,99735.89
2023-05-08T05:57:13.944Z,99751.74
2023-05-08T06:02:28.582Z,99758.85
2023-05-08T06:07:35.981Z,99763.66
2023-05-08T06:12:47.230Z,99766.17
2023-05-08T06:17:53.787Z,99771.27
2023-05-08T06:23:07.980Z,99778.21
2023-05-08T06:28:12.566Z,99780.99
2023-05-08T06:33:29.310Z,99784.76
2023-05-08T06:38:39.530Z,99786.17
2023-05-08T06:43:50.887Z,99788.82
2023-05-08T06:48:58.333Z,99790.69
2023-05-08T06:54:28.825Z,99800.36
2023-05-08T06:59:43.756Z,99805.96
2023-05-08T07:04:50.066Z,99810.55
2023-05-08T07:10:07.945Z,99816.90
2023-05-08T07:15:26.434Z,99813.18
2023-05-08T07:20:57.636Z,99816.45
2023-05-08T07:26:05.932Z,99818.66
2023-05-08T07:31:27.967Z,99819.50
2023-05-08T07:36:33.316Z,99822.05
2023-05-08T07:41:40.364Z,99830.02
2023-05-08T07:47:07.470Z,99826.31
2023-05-08T07:52:13.765Z,99829.69
2023-05-08T07:57:26.329Z,99831.30
2023-05-08T08:02:38.414Z,99829.33
2023-05-08T08:07:50.363Z,99830.74
2023-05-08T08:13:26.146Z,99828.54
2023-05-08T08:18:40.835Z,99825.00
2023-05-08T08:23:53.377Z,99831.95
2023-05-08T08:28:55.898Z,99831.73
2023-05-08T08:34:05.544Z,99829.59
2023-05-08T08:39:47.071Z,99821.56
2023-05-08T08:45:16.184Z,99836.20
2023-05-08T08:50:35.310Z,99837.98
2023-05-08T08:55:55.344Z,99835.82
2023-05-08T09:00:59.701Z,99850.52
2023-05-08T09:06:36.061Z,99847.75
2023-05-08T09:11:49.067Z,99863.05
2023-05-08T09:17:06.809Z,99861.15
2023-05-08T09:22:23.157Z,99859.52
2023-05-08T09:27:42.194Z,99858.28
2023-05-08T09:32:49.517Z,99859.38
2023-05-08T09:37:56.119Z,99856.66
2023-05-08T09:43:15.068Z,99857.48
2023-05-08T09:48:39.648Z,99847.34
2023-05-08T09:53:42.303Z,99849.05
2023-05-08T09:58:55.102Z,99843.72
2023-05-08T10:04:33.208Z,99845.78
2023-05-08T10:11:04.385Z,99845.23
2023-05-08T10:16:22.102Z,99832.17
2023-05-08T10:21:28.160Z,99836.34
2023-05-08T10:27:22.498Z,99831.13
2023-05-08T10:33:36.358Z,99829.77
2023-05-08T10:40:00.058Z,99811.41
2023-05-08T10:46:27.199Z,99804.89
2023-05-08T10:53:09.491Z,99807.42
2023-05-08T10:59:56.876Z,99803.36
2023-05-08T11:05:23.888Z,99798.85
2023-05-08T11:10:32.756Z,99794.46
2023-05-08T11:15:51.693Z,99795.63
2023-05-08T11:21:17.268Z,99794.80
2023-05-08T11:26:22.450Z,99781.46
2023-05-08T11:31:49.574Z,99794.64
2023-05-08T11:37:05.463Z,99793.52
2023-05-08T11:42:28.200Z,99793.48
2023-05-08T11:48:02.659Z,99779.06
2023-05-08T11:53:16.304Z,99783.89
2023-05-08T11:58:32.618Z,99777.42
2023-05-08T12:03:37.199Z,99774.48
2023-05-08T12:08:53.807Z,99777.48
2023-05-08T12:14:18.213Z,99766.63
2023-05-08T12:19:45.799Z,99777.47
2023-05-08T12:25:39.858Z,99779.03
2023-05-08T12:31:00.734Z,99791.21
2023-05-08T12:36:26.589Z,99788.39
2023-05-08T12:41:54.172Z,99775.20
2023-05-08T12:46:59.564Z,99777.30
2023-05-08T12:52:08.709Z,99766.15
2023-05-08T12:57:28.250Z,99774.79
2023-05-08T13:02:37.306Z,99766.77
2023-05-08T13:08:05.232Z,99764.45
2023-05-08T13:13:13.636Z,99770.02
2023-05-08T13:18:30.046Z,99770.77
2023-05-08T13:23:32.172Z,99773.38
2023-05-08T13:28:39.663Z,99775.78
2023-05-08T13:33:44.406Z,99768.23
2023-05-08T13:38:56.669Z,99758.16
2023-05-08T13:43:58.495Z,99758.84
2023-05-08T13:49:03.306Z,99752.08
2023-05-08T13:54:05.326Z,99761.64
2023-05-08T13:59:09.827Z,99759.31
2023-05-08T14:04:24.670Z,99754.45
2023-05-08T14:09:27.044Z,99750.59
2023-05-08T14:15:36.552Z,99753.14
2023-05-08T14:21:58.821Z,99753.23
2023-05-08T14:28:19.933Z,99755.65
2023-05-08T14:34:41.185Z,99742.77
2023-05-08T14:40:06.328Z,99738.94
2023-05-08T14:45:08.916Z,99737.48
2023-05-08T14:50:16.693Z,99746.64
2023-05-08T14:55:20.385Z,99748.77
2023-05-08T15:00:43.109Z,99756.23
2023-05-08T15:06:04.224Z,99770.92
2023-05-08T15:11:10.605Z,99768.48
2023-05-08T15:17:11.945Z,99756.23
2023-05-08T15:23:33.566Z,99765.98
2023-05-08T15:30:00.940Z,99757.67
2023-05-08T15:35:28.272Z,99751.74
2023-05-08T15:40:35.476Z,99761.63
2023-05-08T15:45:40.621Z,99749.14
2023-05-08T15:51:28.521Z,99752.77
2023-05-08T15:57:12.248Z,99752.50
2023-05-08T16:02:50.430Z,99742.48
2023-05-08T16:08:44.614Z,99745.61
2023-05-08T16:14:42.832Z,99743.80
2023-05-08T16:20:15.160Z,99740.00
2023-05-08T16:25:46.557Z,99735.48
2023-05-08T16:31:11.370Z,99731.61
2023-05-08T16:36:57.901Z,99733.66
2023-05-08T16:42:09.028Z,99736.68
2023-05-08T16:47:14.494Z,99741.31
2023-05-08T16:52:16.979Z,99744.56
2023-05-08T16:57:23.380Z,99745.89
2023-05-08T17:02:25.862Z,99742.14
2023-05-08T17:08:17.393Z,99753.23
2023-05-08T17:13:21.981Z,99753.02
2023-05-08T17:18:41.742Z,99752.20
2023-05-08T17:23:50.020Z,99754.77
2023-05-08T17:28:55.695Z,99754.96
2023-05-08T17:34:00.765Z,99744.55
2023-05-08T17:40:04.819Z,99736.83
2023-05-08T17:46:25.925Z,99731.99
2023-05-08T17:52:47.271Z,99736.73
2023-05-08T17:59:16.432Z,99736.08
2023-05-08T18:05:38.120Z,99743.70
2023-05-08T18:12:22.522Z,99750.29
2023-05-08T18:18:25.073Z,99748.30
2023-05-08T18:23:46.748Z,99749.98
2023-05-08T18:30:07.662Z,99750.17
2023-05-08T18:35:20.987Z,99754.48
2023-05-08T18:40:24.613Z,99753.27
2023-05-08T18:45:42.462Z,99754.63
2023-05-08T18:51:28.470Z,99760.25
2023-05-08T18:56:50.732Z,99758.11
2023-05-08T19:01:58.681Z,99764.38
2023-05-08T19:07:01.643Z,99773.85
2023-05-08T19:13:07.426Z,99771.86
2023-05-08T19:19:28.604Z,99769.48
2023-05-08T19:25:52.573Z,99764.76
2023-05-08T19:33:04.509Z,99767.71
2023-05-08T19:39:26.125Z,99768.09
2023-05-08T19:45:47.868Z,99763.84
2023-05-08T19:53:46.143Z,99755.15
2023-05-08T20:00:13.981Z,99748.66
2023-05-08T20:06:51.809Z,99749.52
2023-05-08T20:12:53.230Z,99753.12
2023-05-08T20:19:14.605Z,99744.07
2023-05-08T20:25:56.390Z,99739.29
2023-05-08T20:32:30.576Z,99742.68
2023-05-08T20:38:58.564Z,99737.20
2023-05-08T20:45:23.095Z,99734.77
2023-05-08T20:51:57.526Z,99735.61
2023-05-08T20:58:21.329Z,99738.32
2023-05-08T21:05:04.104Z,99738.64
2023-05-08T21:11:37.841Z,99732.10
2023-05-08T21:18:07.694Z,99728.65
2023-05-08T21:23:12.861Z,99728.45
2023-05-08T21:28:35.204Z,99726.58
2023-05-08T21:34:24.763Z,99726.41
2023-05-08T21:40:06.514Z,99721.29
2023-05-08T21:45:17.473Z,99719.89
2023-05-08T21:51:04.984Z,99716.08
2023-05-08T21:56:23.202Z,99715.84
2023-05-08T22:01:30.021Z,99716.13
2023-05-08T22:06:56.413Z,99713.15
2023-05-08T22:12:27.520Z,99709.02
2023-05-08T22:18:35.633Z,99704.08
2023-05-08T22:25:02.929Z,99697.60
2023-05-08T22:31:24.691Z,99701.21
2023-05-08T22:38:11.809Z,99693.91
2023-05-08T22:44:36.669Z,99689.77
2023-05-08T22:50:41.534Z,99679.98
2023-05-08T22:56:49.930Z,99679.61
2023-05-08T23:03:30.973Z,99677.84
2023-05-08T23:09:38.612Z,99681.55
2023-05-08T23:15:58.833Z,99676.82
2023-05-08T23:23:00.746Z,99678.02
2023-05-08T23:29:42.208Z,99669.86
2023-05-08T23:36:03.586Z,99668.45
2023-05-08T23:42:42.959Z,99659.88
2023-05-08T23:49:08.193Z,99659.27
2023-05-08T23:55:38.516Z,99651.20
